Faneromeni — SVKG — position and weather

sailwx.info

Track history (hours):
 
Tides and Currents Weather Stations Pressure Air Temp Water Temp Dewpoint Dewpoint Depression Visibility Wind Speed Wind Dir Waves Ship Positions

Faneromeni

Last reported at 2014-Dec-12 03:33 UTC. Time now 2014-Dec-22 23:28 UTC.
Position N 36°14' E 027°01'.
Warning: this ship's position is 10 days out of date.

Length 230 m; draft 12.5 m.

Type: Cargo ship. MMSI: 240576000.

Date/timePositionNaut miles runAvg speedWind from/ knotsBaromVisibWave heightAir tempDewpointWater temp
2014-Dec-12 03:33N 36°14' E 027°01'10 9.4
2014-Dec-12 02:31N 36°22' E 026°53'27 9.0
2014-Dec-11 23:34N 36°41' E 026°31'8 8.0
2014-Dec-11 22:33N 36°47' E 026°24'8 7.8
2014-Dec-11 21:32N 36°53' E 026°17'8 7.7
2014-Dec-11 20:33N 36°59' E 026°12'8 8.4
2014-Dec-11 19:33N 37°07' E 026°08'9 9.1
2014-Dec-11 18:33N 37°15' E 026°04'9 9.4
2014-Dec-11 17:34N 37°24' E 025°58'1010.0
2014-Dec-11 16:34N 37°33' E 025°53'9 9.0
2014-Dec-11 15:32N 37°42' E 025°50'10 9.8
2014-Dec-11 14:33N 37°51' E 025°46'259 8.3
2014-Dec-10 07:33N 41°16' E 029°10'6 6.2
2014-Dec-10 06:33N 41°18' E 029°17'1 0.9
2014-Dec-10 05:33N 41°19' E 029°18'4 1.7
2014-Dec-10 03:29N 41°22' E 029°17'1 0.2
2014-Dec-09 22:04N 41°23' E 029°18'1 1.2
2014-Dec-09 21:33N 41°23' E 029°18'1 1.3
2014-Dec-09 20:33N 41°24' E 029°17'1 1.3
2014-Dec-09 19:33N 41°25' E 029°15'2 1.2
2014-Dec-09 18:19N 41°24' E 029°17'3 4.4
2014-Dec-09 17:33N 41°22' E 029°21'0 0.2
2014-Dec-09 16:33N 41°22' E 029°21'2 1.5
2014-Dec-09 15:33N 41°23' E 029°20'2 1.5
2014-Dec-09 14:33N 41°25' E 029°18'1 1.2
2014-Dec-09 13:33N 41°25' E 029°17'3 3.0
2014-Dec-09 12:33N 41°23' E 029°19'5 4.7
2014-Dec-09 11:33N 41°20' E 029°24'1 1.1
2014-Dec-09 10:33N 41°20' E 029°22'1 0.9
2014-Dec-09 09:34N 41°21' E 029°22'1 0.9
2014-Dec-09 08:33N 41°21' E 029°21'1 1.0
2014-Dec-09 07:33N 41°22' E 029°20'1 0.9
2014-Dec-09 06:33N 41°23' E 029°19'1 0.8
2014-Dec-09 05:33N 41°24' E 029°19'1 0.8
2014-Dec-09 04:33N 41°24' E 029°18'1 0.7
2014-Dec-09 03:33N 41°24' E 029°17'6 1.1
2014-Dec-08 22:04N 41°25' E 029°25'0 0.8
2014-Dec-08 21:33N 41°25' E 029°25'1 0.7
2014-Dec-08 20:33N 41°25' E 029°24'1 0.5
2014-Dec-08 19:29N 41°26' E 029°23'0 0.5
2014-Dec-08 18:33N 41°25' E 029°23'1 0.6
2014-Dec-08 17:33N 41°26' E 029°22'1 0.8
2014-Dec-08 16:33N 41°25' E 029°21'3 3.2
2014-Dec-08 15:33N 41°23' E 029°24'4 4.5
2014-Dec-08 14:33N 41°20' E 029°28'1 1.2
2014-Dec-08 13:33N 41°21' E 029°27'1 1.1
2014-Dec-08 12:33N 41°21' E 029°26'1 0.9
2014-Dec-08 11:33N 41°22' E 029°25'1 0.8
2014-Dec-08 10:33N 41°22' E 029°24'1 0.6
2014-Dec-08 09:33N 41°22' E 029°23'1 0.7
2014-Dec-08 08:33N 41°23' E 029°22'1 0.6
2014-Dec-08 07:33N 41°23' E 029°22'1 0.8
2014-Dec-08 06:33N 41°23' E 029°21'1 1.4
2014-Dec-08 05:33N 41°22' E 029°20'6 5.7
2014-Dec-08 04:34N 41°19' E 029°26'1 0.9
2014-Dec-08 03:33N 41°19' E 029°25'6 1.0
2014-Dec-07 22:04N 41°22' E 029°19'0 0.3
2014-Dec-07 21:33N 41°23' E 029°19'1 0.8
2014-Dec-07 20:33N 41°23' E 029°18'1 1.3
2014-Dec-07 19:33N 41°24' E 029°17'1 1.4
2014-Dec-07 18:33N 41°25' E 029°16'1 1.2
2014-Dec-07 17:33N 41°26' E 029°15'1 0.7
2014-Dec-07 16:29N 41°25' E 029°14'3 1.9
2014-Dec-07 15:07N 41°24' E 029°17'3 4.8
2014-Dec-07 14:33N 41°25' E 029°21'8 7.7
2014-Dec-07 13:33N 41°28' E 029°30'21910.7
2014-Dec-06 17:08N 43°08' E 033°54'2010.6
2014-Dec-06 15:15N 43°17' E 034°18'810.7
2014-Dec-06 14:32N 43°21' E 034°27'1411.0
2014-Dec-06 13:13N 43°27' E 034°45'711.0
2014-Dec-06 12:33N 43°31' E 034°54'1110.8
2014-Dec-06 11:33N 43°35' E 035°07'1210.9
2014-Dec-06 10:28N 43°41' E 035°22'1010.8
2014-Dec-06 09:34N 43°45' E 035°34'1110.7
2014-Dec-06 08:33N 43°50' E 035°47'1110.6
2014-Dec-06 07:33N 43°55' E 036°00'1110.7
2014-Dec-06 06:34N 43°60' E 036°14'1110.6
2014-Dec-06 05:33N 44°05' E 036°27'1110.8
2014-Dec-06 04:33N 44°10' E 036°40'3711.2
2014-Dec-06 01:15N 44°26' E 037°26'811.7
2014-Dec-06 00:33N 44°31' E 037°36'1111.5
2014-Dec-05 23:33N 44°35' E 037°51'2 2.3
2014-Dec-05 22:33N 44°36' E 037°54'0 0.0
2014-Dec-05 21:33N 44°36' E 037°54'0 0.1
2014-Dec-05 20:33N 44°36' E 037°54'0 0.0
2014-Dec-05 19:33N 44°36' E 037°54'0 0.0
2014-Dec-05 18:30N 44°36' E 037°54'0 0.1
2014-Dec-05 17:33N 44°36' E 037°54'2 2.4
2014-Dec-05 16:33N 44°38' E 037°52'7 6.6
2014-Dec-05 15:33N 44°44' E 037°48'0 0.5
2014-Dec-05 14:31N 44°44' E 037°47'0 0.0
2014-Dec-05 13:31N 44°44' E 037°47'0 0.0
2014-Dec-05 12:31N 44°44' E 037°47'0 0.0
2014-Dec-05 11:31N 44°44' E 037°47'0 0.0
2014-Dec-05 10:28N 44°44' E 037°47'0 0.0
2014-Dec-05 09:31N 44°44' E 037°47'0 0.0
2014-Dec-05 08:31N 44°44' E 037°47'0 0.0
2014-Dec-05 07:28N 44°44' E 037°47'0 0.0
2014-Dec-05 06:28N 44°44' E 037°47'0 0.0
2014-Dec-05 05:31N 44°44' E 037°47'0 0.0
2014-Dec-05 04:31N 44°44' E 037°47'0 0.0
2014-Dec-05 03:31N 44°44' E 037°47'0 0.0
2014-Dec-05 02:28N 44°44' E 037°47'0 0.0
2014-Dec-05 01:31N 44°44' E 037°47'0 0.0
2014-Dec-05 00:31N 44°44' E 037°47'0 0.0
2014-Dec-04 23:31N 44°44' E 037°47'0 0.0
2014-Dec-04 22:31N 44°44' E 037°47'0 0.0
2014-Dec-04 21:31N 44°44' E 037°47'0 0.0
2014-Dec-04 20:31N 44°44' E 037°47'0 0.0
2014-Dec-04 19:31N 44°44' E 037°47'0 0.0
2014-Dec-04 18:31N 44°44' E 037°47'0 0.0
2014-Dec-04 17:31N 44°44' E 037°47'0 0.0
2014-Dec-04 16:31N 44°44' E 037°47'0 0.0
2014-Dec-04 15:28N 44°44' E 037°47'0 0.0
2014-Dec-04 14:31N 44°44' E 037°47'0 0.0
2014-Dec-04 13:31N 44°44' E 037°47'0 0.0
2014-Dec-04 12:31N 44°44' E 037°47'0 0.0
2014-Dec-04 11:31N 44°44' E 037°47'0 0.0
2014-Dec-04 10:31N 44°44' E 037°47'0 0.0
2014-Dec-04 09:31N 44°44' E 037°47'0 0.0
2014-Dec-04 08:31N 44°44' E 037°47'0 0.0
2014-Dec-04 07:31N 44°44' E 037°47'0 0.0
2014-Dec-04 06:31N 44°44' E 037°47'0 0.0
2014-Dec-04 05:31N 44°44' E 037°47'0 0.0
2014-Dec-04 04:31N 44°44' E 037°47'0 0.0
2014-Dec-04 03:31N 44°44' E 037°47'0 0.0
2014-Dec-04 02:28N 44°44' E 037°47'0 0.0
2014-Dec-04 01:31N 44°44' E 037°47'0 0.0
2014-Dec-04 00:31N 44°44' E 037°47'0 0.0
2014-Dec-03 23:31N 44°44' E 037°47'0 0.0
2014-Dec-03 22:31N 44°44' E 037°47'0 0.0
2014-Dec-03 21:31N 44°44' E 037°47'0 0.0
2014-Dec-03 20:31N 44°44' E 037°47'0 0.0
2014-Dec-03 19:31N 44°44' E 037°47'0 0.0
2014-Dec-03 18:31N 44°44' E 037°47'0 0.0
2014-Dec-03 17:31N 44°44' E 037°47'0 0.0
2014-Dec-03 16:31N 44°44' E 037°47'0 0.0
2014-Dec-03 15:31N 44°44' E 037°47'0 0.0
2014-Dec-03 14:31N 44°44' E 037°47'0 0.0
2014-Dec-03 13:31N 44°44' E 037°47'0 0.0
2014-Dec-03 12:31N 44°44' E 037°47'0 0.0
2014-Dec-03 11:31N 44°44' E 037°47'0 0.0
2014-Dec-03 10:31N 44°44' E 037°47'0 0.0
2014-Dec-03 09:31N 44°44' E 037°47'0 0.0
2014-Dec-03 08:31N 44°44' E 037°47'0 0.0
2014-Dec-03 07:31N 44°44' E 037°47'0 0.0
2014-Dec-03 06:31N 44°44' E 037°47'0 0.0
2014-Dec-03 05:31N 44°44' E 037°47'0 0.0
2014-Dec-03 04:31N 44°44' E 037°47'0 0.0
2014-Dec-03 03:31N 44°44' E 037°47'0 0.0
2014-Dec-03 02:31N 44°44' E 037°47'0 0.0
2014-Dec-03 01:31N 44°44' E 037°47'0 0.0
2014-Dec-03 00:31N 44°44' E 037°47'0 0.0
2014-Dec-02 23:31N 44°44' E 037°47'0 0.0
2014-Dec-02 22:31N 44°44' E 037°47'0 0.0
2014-Dec-02 21:31N 44°44' E 037°47'0 0.0
2014-Dec-02 20:31N 44°44' E 037°47'0 0.0
2014-Dec-02 19:31N 44°44' E 037°47'0 0.0
2014-Dec-02 18:31N 44°44' E 037°47'0 0.0
2014-Dec-02 17:31N 44°44' E 037°47'0 0.0
2014-Dec-02 16:31N 44°44' E 037°47'0 0.0
2014-Dec-02 15:28N 44°44' E 037°47'0 0.0
2014-Dec-02 14:31N 44°44' E 037°47'0 0.0
2014-Dec-02 13:31N 44°44' E 037°47'0 0.0
2014-Dec-02 12:31N 44°44' E 037°47'0 0.0
2014-Dec-02 11:31N 44°44' E 037°47'0 0.0
2014-Dec-02 10:31N 44°44' E 037°47'0 0.0
2014-Dec-02 09:31N 44°44' E 037°47'0 0.0
2014-Dec-02 08:31N 44°44' E 037°47'0 0.0
2014-Dec-02 07:28N 44°44' E 037°47'0 0.0
2014-Dec-02 06:31N 44°44' E 037°47'0 0.0
2014-Dec-02 05:31N 44°44' E 037°47'0 0.0
2014-Dec-02 04:31N 44°44' E 037°47'0 0.0
2014-Dec-02 03:33N 44°44' E 037°47'  
Track history (hours):
 
Tides and Currents Weather Stations Pressure Air Temp Water Temp Dewpoint Dewpoint Depression Visibility Wind Speed Wind Dir Waves Ship Positions

Faneromeni

Last reported at 2014-Dec-12 03:33 UTC. Time now 2014-Dec-22 23:28 UTC.
Position N 36°14' E 027°01'.
Warning: this ship's position is 10 days out of date.

Length 230 m; draft 12.5 m.

Type: Cargo ship. MMSI: 240576000.

Date/timePositionNaut miles runAvg speedWind from/ knotsBaromVisibWave heightAir tempDewpointWater temp
2014-Dec-12 03:33N 36°14' E 027°01'10 9.4
2014-Dec-12 02:31N 36°22' E 026°53'27 9.0
2014-Dec-11 23:34N 36°41' E 026°31'8 8.0
2014-Dec-11 22:33N 36°47' E 026°24'8 7.8
2014-Dec-11 21:32N 36°53' E 026°17'8 7.7
2014-Dec-11 20:33N 36°59' E 026°12'8 8.4
2014-Dec-11 19:33N 37°07' E 026°08'9 9.1
2014-Dec-11 18:33N 37°15' E 026°04'9 9.4
2014-Dec-11 17:34N 37°24' E 025°58'1010.0
2014-Dec-11 16:34N 37°33' E 025°53'9 9.0
2014-Dec-11 15:32N 37°42' E 025°50'10 9.8
2014-Dec-11 14:33N 37°51' E 025°46'259 8.3
2014-Dec-10 07:33N 41°16' E 029°10'6 6.2
2014-Dec-10 06:33N 41°18' E 029°17'1 0.9
2014-Dec-10 05:33N 41°19' E 029°18'4 1.7
2014-Dec-10 03:29N 41°22' E 029°17'1 0.2
2014-Dec-09 22:04N 41°23' E 029°18'1 1.2
2014-Dec-09 21:33N 41°23' E 029°18'1 1.3
2014-Dec-09 20:33N 41°24' E 029°17'1 1.3
2014-Dec-09 19:33N 41°25' E 029°15'2 1.2
2014-Dec-09 18:19N 41°24' E 029°17'3 4.4
2014-Dec-09 17:33N 41°22' E 029°21'0 0.2
2014-Dec-09 16:33N 41°22' E 029°21'2 1.5
2014-Dec-09 15:33N 41°23' E 029°20'2 1.5
2014-Dec-09 14:33N 41°25' E 029°18'1 1.2
2014-Dec-09 13:33N 41°25' E 029°17'3 3.0
2014-Dec-09 12:33N 41°23' E 029°19'5 4.7
2014-Dec-09 11:33N 41°20' E 029°24'1 1.1
2014-Dec-09 10:33N 41°20' E 029°22'1 0.9
2014-Dec-09 09:34N 41°21' E 029°22'1 0.9
2014-Dec-09 08:33N 41°21' E 029°21'1 1.0
2014-Dec-09 07:33N 41°22' E 029°20'1 0.9
2014-Dec-09 06:33N 41°23' E 029°19'1 0.8
2014-Dec-09 05:33N 41°24' E 029°19'1 0.8
2014-Dec-09 04:33N 41°24' E 029°18'1 0.7
2014-Dec-09 03:33N 41°24' E 029°17'6 1.1
2014-Dec-08 22:04N 41°25' E 029°25'0 0.8
2014-Dec-08 21:33N 41°25' E 029°25'1 0.7
2014-Dec-08 20:33N 41°25' E 029°24'1 0.5
2014-Dec-08 19:29N 41°26' E 029°23'0 0.5
2014-Dec-08 18:33N 41°25' E 029°23'1 0.6
2014-Dec-08 17:33N 41°26' E 029°22'1 0.8
2014-Dec-08 16:33N 41°25' E 029°21'3 3.2
2014-Dec-08 15:33N 41°23' E 029°24'4 4.5
2014-Dec-08 14:33N 41°20' E 029°28'1 1.2
2014-Dec-08 13:33N 41°21' E 029°27'1 1.1
2014-Dec-08 12:33N 41°21' E 029°26'1 0.9
2014-Dec-08 11:33N 41°22' E 029°25'1 0.8
2014-Dec-08 10:33N 41°22' E 029°24'1 0.6
2014-Dec-08 09:33N 41°22' E 029°23'1 0.7
2014-Dec-08 08:33N 41°23' E 029°22'1 0.6
2014-Dec-08 07:33N 41°23' E 029°22'1 0.8
2014-Dec-08 06:33N 41°23' E 029°21'1 1.4
2014-Dec-08 05:33N 41°22' E 029°20'6 5.7
2014-Dec-08 04:34N 41°19' E 029°26'1 0.9
2014-Dec-08 03:33N 41°19' E 029°25'6 1.0
2014-Dec-07 22:04N 41°22' E 029°19'0 0.3
2014-Dec-07 21:33N 41°23' E 029°19'1 0.8
2014-Dec-07 20:33N 41°23' E 029°18'1 1.3
2014-Dec-07 19:33N 41°24' E 029°17'1 1.4
2014-Dec-07 18:33N 41°25' E 029°16'1 1.2
2014-Dec-07 17:33N 41°26' E 029°15'1 0.7
2014-Dec-07 16:29N 41°25' E 029°14'3 1.9
2014-Dec-07 15:07N 41°24' E 029°17'3 4.8
2014-Dec-07 14:33N 41°25' E 029°21'8 7.7
2014-Dec-07 13:33N 41°28' E 029°30'21910.7
2014-Dec-06 17:08N 43°08' E 033°54'2010.6
2014-Dec-06 15:15N 43°17' E 034°18'810.7
2014-Dec-06 14:32N 43°21' E 034°27'1411.0
2014-Dec-06 13:13N 43°27' E 034°45'711.0
2014-Dec-06 12:33N 43°31' E 034°54'1110.8
2014-Dec-06 11:33N 43°35' E 035°07'1210.9
2014-Dec-06 10:28N 43°41' E 035°22'1010.8
2014-Dec-06 09:34N 43°45' E 035°34'1110.7
2014-Dec-06 08:33N 43°50' E 035°47'1110.6
2014-Dec-06 07:33N 43°55' E 036°00'1110.7
2014-Dec-06 06:34N 43°60' E 036°14'1110.6
2014-Dec-06 05:33N 44°05' E 036°27'1110.8
2014-Dec-06 04:33N 44°10' E 036°40'3711.2
2014-Dec-06 01:15N 44°26' E 037°26'811.7
2014-Dec-06 00:33N 44°31' E 037°36'1111.5
2014-Dec-05 23:33N 44°35' E 037°51'2 2.3
2014-Dec-05 22:33N 44°36' E 037°54'0 0.0
2014-Dec-05 21:33N 44°36' E 037°54'0 0.1
2014-Dec-05 20:33N 44°36' E 037°54'0 0.0
2014-Dec-05 19:33N 44°36' E 037°54'0 0.0
2014-Dec-05 18:30N 44°36' E 037°54'0 0.1
2014-Dec-05 17:33N 44°36' E 037°54'2 2.4
2014-Dec-05 16:33N 44°38' E 037°52'7 6.6
2014-Dec-05 15:33N 44°44' E 037°48'0 0.5
2014-Dec-05 14:31N 44°44' E 037°47'0 0.0
2014-Dec-05 13:31N 44°44' E 037°47'0 0.0
2014-Dec-05 12:31N 44°44' E 037°47'0 0.0
2014-Dec-05 11:31N 44°44' E 037°47'0 0.0
2014-Dec-05 10:28N 44°44' E 037°47'0 0.0
2014-Dec-05 09:31N 44°44' E 037°47'0 0.0
2014-Dec-05 08:31N 44°44' E 037°47'0 0.0
2014-Dec-05 07:28N 44°44' E 037°47'0 0.0
2014-Dec-05 06:28N 44°44' E 037°47'0 0.0
2014-Dec-05 05:31N 44°44' E 037°47'0 0.0
2014-Dec-05 04:31N 44°44' E 037°47'0 0.0
2014-Dec-05 03:31N 44°44' E 037°47'0 0.0
2014-Dec-05 02:28N 44°44' E 037°47'0 0.0
2014-Dec-05 01:31N 44°44' E 037°47'0 0.0
2014-Dec-05 00:31N 44°44' E 037°47'0 0.0
2014-Dec-04 23:31N 44°44' E 037°47'0 0.0
2014-Dec-04 22:31N 44°44' E 037°47'0 0.0
2014-Dec-04 21:31N 44°44' E 037°47'0 0.0
2014-Dec-04 20:31N 44°44' E 037°47'0 0.0
2014-Dec-04 19:31N 44°44' E 037°47'0 0.0
2014-Dec-04 18:31N 44°44' E 037°47'0 0.0
2014-Dec-04 17:31N 44°44' E 037°47'0 0.0
2014-Dec-04 16:31N 44°44' E 037°47'0 0.0
2014-Dec-04 15:28N 44°44' E 037°47'0 0.0
2014-Dec-04 14:31N 44°44' E 037°47'0 0.0
2014-Dec-04 13:31N 44°44' E 037°47'0 0.0
2014-Dec-04 12:31N 44°44' E 037°47'0 0.0
2014-Dec-04 11:31N 44°44' E 037°47'0 0.0
2014-Dec-04 10:31N 44°44' E 037°47'0 0.0
2014-Dec-04 09:31N 44°44' E 037°47'0 0.0
2014-Dec-04 08:31N 44°44' E 037°47'0 0.0
2014-Dec-04 07:31N 44°44' E 037°47'0 0.0
2014-Dec-04 06:31N 44°44' E 037°47'0 0.0
2014-Dec-04 05:31N 44°44' E 037°47'0 0.0
2014-Dec-04 04:31N 44°44' E 037°47'0 0.0
2014-Dec-04 03:31N 44°44' E 037°47'0 0.0
2014-Dec-04 02:28N 44°44' E 037°47'0 0.0
2014-Dec-04 01:31N 44°44' E 037°47'0 0.0
2014-Dec-04 00:31N 44°44' E 037°47'0 0.0
2014-Dec-03 23:31N 44°44' E 037°47'0 0.0
2014-Dec-03 22:31N 44°44' E 037°47'0 0.0
2014-Dec-03 21:31N 44°44' E 037°47'0 0.0
2014-Dec-03 20:31N 44°44' E 037°47'0 0.0
2014-Dec-03 19:31N 44°44' E 037°47'0 0.0
2014-Dec-03 18:31N 44°44' E 037°47'0 0.0
2014-Dec-03 17:31N 44°44' E 037°47'0 0.0
2014-Dec-03 16:31N 44°44' E 037°47'0 0.0
2014-Dec-03 15:31N 44°44' E 037°47'0 0.0
2014-Dec-03 14:31N 44°44' E 037°47'0 0.0
2014-Dec-03 13:31N 44°44' E 037°47'0 0.0
2014-Dec-03 12:31N 44°44' E 037°47'0 0.0
2014-Dec-03 11:31N 44°44' E 037°47'0 0.0
2014-Dec-03 10:31N 44°44' E 037°47'0 0.0
2014-Dec-03 09:31N 44°44' E 037°47'0 0.0
2014-Dec-03 08:31N 44°44' E 037°47'0 0.0
2014-Dec-03 07:31N 44°44' E 037°47'0 0.0
2014-Dec-03 06:31N 44°44' E 037°47'0 0.0
2014-Dec-03 05:31N 44°44' E 037°47'0 0.0
2014-Dec-03 04:31N 44°44' E 037°47'0 0.0
2014-Dec-03 03:31N 44°44' E 037°47'0 0.0
2014-Dec-03 02:31N 44°44' E 037°47'0 0.0
2014-Dec-03 01:31N 44°44' E 037°47'0 0.0
2014-Dec-03 00:31N 44°44' E 037°47'0 0.0
2014-Dec-02 23:31N 44°44' E 037°47'0 0.0
2014-Dec-02 22:31N 44°44' E 037°47'0 0.0
2014-Dec-02 21:31N 44°44' E 037°47'0 0.0
2014-Dec-02 20:31N 44°44' E 037°47'0 0.0
2014-Dec-02 19:31N 44°44' E 037°47'0 0.0
2014-Dec-02 18:31N 44°44' E 037°47'0 0.0
2014-Dec-02 17:31N 44°44' E 037°47'0 0.0
2014-Dec-02 16:31N 44°44' E 037°47'0 0.0
2014-Dec-02 15:28N 44°44' E 037°47'0 0.0
2014-Dec-02 14:31N 44°44' E 037°47'0 0.0
2014-Dec-02 13:31N 44°44' E 037°47'0 0.0
2014-Dec-02 12:31N 44°44' E 037°47'0 0.0
2014-Dec-02 11:31N 44°44' E 037°47'0 0.0
2014-Dec-02 10:31N 44°44' E 037°47'0 0.0
2014-Dec-02 09:31N 44°44' E 037°47'0 0.0
2014-Dec-02 08:31N 44°44' E 037°47'0 0.0
2014-Dec-02 07:28N 44°44' E 037°47'0 0.0
2014-Dec-02 06:31N 44°44' E 037°47'0 0.0
2014-Dec-02 05:31N 44°44' E 037°47'0 0.0
2014-Dec-02 04:31N 44°44' E 037°47'0 0.0
2014-Dec-02 03:33N 44°44' E 037°47'  

Dump ship's entire track history